Woodbury, Connecticut
Current Conditions -  °F | °C
As of 3:50 PM on Thursday 23 Oct 2014 (Local Time) from KOXC Reporting Station
Drizzle Drizzle  
Wind Chill: 43°   Ceiling: 700
Heat Index: 48°   Visibility: 5mi
Dew Point: 43°   Wind: 12mph
Humidity: 82%   Direction: 350°N
Pressure: 29.67"   Gusts: NA
Location:  41.54°N, 73.21°W
Report Text: KOXC 231950Z 35010KT 5SM -DZ BR OVC007 09/06 A2967
Loading
Personal Weather Stations






























Interactive Weather Map New forecast layout! Learn more

10-Day Weather Forecast

Advertisements
Track Severe Weather on mobile